Time;durP1;ratioP1;P1;durP2;ratioP2;P2;SDS_P1;SDS_P2;PMS_P1;PMS_P2;Temp;Humidity;BMP_temperature;BMP_pressure;BME280_temperature;BME280_humidity;BME280_pressure;Samples;Min_cycle;Max_cycle;Signal;HPM_P1;HPM_P2
2024/01/20 00:02:19;;;;;;;6.90;5.63;;;;;;;;;;5031703;28;20496;-59
2024/01/20 00:04:47;;;;;;;10.20;6.80;;;;;;;;;;5024864;28;20458;-59
2024/01/20 00:07:17;;;;;;;15.20;8.40;;;;;;;;;;5032821;28;20492;-59
2024/01/20 00:09:45;;;;;;;13.57;7.30;;;;;;;;;;5032841;28;20531;-59
2024/01/20 00:12:13;;;;;;;18.17;7.60;;;;;;;;;;5033355;28;20471;-59
2024/01/20 00:14:41;;;;;;;14.47;8.40;;;;;;;;;;5029050;28;20463;-59
2024/01/20 00:17:10;;;;;;;13.13;7.33;;;;;;;;;;5033362;28;21010;-59
2024/01/20 00:19:38;;;;;;;9.63;7.13;;;;;;;;;;5024269;28;20528;-58
2024/01/20 00:22:05;;;;;;;13.30;7.00;;;;;;;;;;5032556;28;20546;-58
2024/01/20 00:24:34;;;;;;;10.47;7.43;;;;;;;;;;5029334;28;20949;-59
2024/01/20 00:27:01;;;;;;;13.90;8.07;;;;;;;;;;5027262;28;20442;-59
2024/01/20 00:29:28;;;;;;;8.20;5.00;;;-4.70;99.90;;;;;;5032818;28;20485;-59
2024/01/20 00:31:55;;;;;;;8.50;5.80;;;-4.70;99.90;;;;;;5032870;28;20524;-59
2024/01/20 00:34:22;;;;;;;5.53;4.90;;;-4.70;99.90;;;;;;5031648;28;20462;-58
2024/01/20 00:36:49;;;;;;;8.00;4.83;;;-4.60;99.90;;;;;;5026177;28;20442;-58
2024/01/20 00:39:16;;;;;;;7.67;5.20;;;-4.60;99.90;;;;;;5033050;28;20441;-58
2024/01/20 00:41:44;;;;;;;5.50;3.80;;;-4.60;99.90;;;;;;5031370;28;20469;-58
2024/01/20 00:44:11;;;;;;;4.23;3.27;;;-4.70;99.90;;;;;;5032938;28;20445;-59
2024/01/20 00:46:38;;;;;;;3.90;3.13;;;-4.50;99.90;;;;;;5031829;28;21027;-59
2024/01/20 00:49:05;;;;;;;4.53;2.67;;;-4.60;99.90;;;;;;5032820;28;20472;-58
2024/01/20 00:51:33;;;;;;;3.03;2.10;;;;;;;;;;5032755;28;20605;-59
2024/01/20 00:54:00;;;;;;;5.03;2.80;;;;;;;;;;5032426;28;20437;-58
2024/01/20 00:56:27;;;;;;;3.90;2.03;;;;;;;;;;5032042;28;20938;-60
2024/01/20 00:58:56;;;;;;;2.53;2.33;;;;;;;;;;5031082;28;20465;-59
2024/01/20 01:01:23;;;;;;;3.47;2.67;;;;;;;;;;5032129;28;20438;-59
2024/01/20 01:03:50;;;;;;;2.57;2.37;;;;;;;;;;5032672;28;20446;-58
2024/01/20 01:06:17;;;;;;;3.17;2.77;;;;;;;;;;5032775;28;21063;-59
2024/01/20 01:08:45;;;;;;;6.03;3.57;;;;;;;;;;5032356;28;20445;-58
2024/01/20 01:11:12;;;;;;;7.53;4.40;;;-4.30;99.90;;;;;;5030542;28;20559;-59
2024/01/20 01:13:39;;;;;;;8.10;5.67;;;-4.50;99.90;;;;;;5024054;28;20454;-59
2024/01/20 01:16:08;;;;;;;6.47;4.90;;;;;;;;;;5032026;28;20451;-58
2024/01/20 01:18:35;;;;;;;8.80;5.90;;;;;;;;;;5032529;28;20434;-59
2024/01/20 01:21:02;;;;;;;9.40;5.80;;;;;;;;;;5031696;28;20443;-59
2024/01/20 01:23:29;;;;;;;9.23;5.43;;;;;;;;;;5030976;28;20461;-59
2024/01/20 01:25:57;;;;;;;9.40;5.37;;;;;;;;;;5031957;28;20504;-58
2024/01/20 01:28:24;;;;;;;6.70;5.77;;;;;;;;;;5032296;28;20447;-58
2024/01/20 01:30:51;;;;;;;8.57;5.17;;;-5.10;99.90;;;;;;5030906;28;21060;-59
2024/01/20 01:33:19;;;;;;;7.93;5.67;;;-5.10;99.90;;;;;;5032250;28;20882;-59
2024/01/20 01:35:46;;;;;;;6.77;4.27;;;-5.10;99.90;;;;;;5031439;28;20493;-59
2024/01/20 01:38:13;;;;;;;8.43;5.33;;;-5.20;99.90;;;;;;5022833;28;20475;-59
2024/01/20 01:40:40;;;;;;;6.20;4.57;;;-5.10;99.90;;;;;;5031207;28;20508;-58
2024/01/20 01:43:08;;;;;;;8.60;4.60;;;-4.90;99.90;;;;;;5031462;28;20509;-59
2024/01/20 01:45:34;;;;;;;7.07;4.50;;;-4.90;99.90;;;;;;5028396;28;20846;-59
2024/01/20 01:48:02;;;;;;;4.77;4.07;;;-5.00;99.90;;;;;;5026098;28;20864;-59
2024/01/20 01:50:30;;;;;;;6.80;4.43;;;-5.00;99.90;;;;;;5022434;28;20563;-59
2024/01/20 01:52:59;;;;;;;6.07;4.20;;;-5.00;99.90;;;;;;5031735;28;20462;-58
2024/01/20 01:55:26;;;;;;;7.53;4.90;;;-4.90;99.90;;;;;;5031777;28;20458;-59
2024/01/20 01:57:53;;;;;;;8.73;5.83;;;-5.00;99.90;;;;;;5031203;28;20438;-59
2024/01/20 02:00:21;;;;;;;10.47;5.30;;;-5.00;99.90;;;;;;5031665;28;21168;-59
2024/01/20 02:02:48;;;;;;;7.43;5.13;;;-5.20;99.90;;;;;;5029246;28;21289;-59
2024/01/20 02:05:15;;;;;;;9.87;5.20;;;-5.20;99.90;;;;;;5029547;28;20524;-59
2024/01/20 02:07:44;;;;;;;9.07;5.07;;;-5.30;99.90;;;;;;5031558;28;20442;-59
2024/01/20 02:10:11;;;;;;;6.53;4.30;;;-5.30;99.90;;;;;;5031407;28;20478;-61
2024/01/20 02:12:40;;;;;;;6.00;3.17;;;-5.30;99.90;;;;;;5027821;28;20562;-58
2024/01/20 02:15:08;;;;;;;4.57;2.87;;;-5.30;99.90;;;;;;5030105;28;20477;-59
2024/01/20 02:17:35;;;;;;;4.63;2.83;;;;;;;;;;5031184;28;20550;-59
2024/01/20 02:20:02;;;;;;;6.60;3.43;;;;;;;;;;5030942;28;21023;-59
2024/01/20 02:22:31;;;;;;;5.90;4.17;;;;;;;;;;5024391;28;20489;-59
2024/01/20 02:24:58;;;;;;;7.60;3.60;;;;;;;;;;5031482;28;20442;-59
2024/01/20 02:27:25;;;;;;;4.53;2.67;;;;;;;;;;5030468;28;20520;-58
2024/01/20 02:29:53;;;;;;;4.37;3.17;;;;;;;;;;5031619;28;20465;-58
2024/01/20 02:32:20;;;;;;;7.10;2.77;;;;;;;;;;5030051;28;20471;-59
2024/01/20 02:34:47;;;;;;;3.80;3.30;;;;;;;;;;5031614;28;20445;-59
2024/01/20 02:37:14;;;;;;;5.23;3.63;;;;;;;;;;5031623;28;20446;-59
2024/01/20 02:39:43;;;;;;;3.73;2.50;;;;;;;;;;5027199;28;20470;-59
2024/01/20 02:42:12;;;;;;;5.90;3.10;;;;;;;;;;5026362;28;20458;-59
2024/01/20 02:44:39;;;;;;;5.83;3.10;;;;;;;;;;5031373;28;20450;-59
2024/01/20 02:47:07;;;;;;;3.53;3.23;;;;;;;;;;5024326;28;20497;-59
2024/01/20 02:49:35;;;;;;;7.90;3.93;;;;;;;;;;5033496;28;20469;-59
2024/01/20 02:52:02;;;;;;;6.50;3.80;;;;;;;;;;5034542;28;20547;-59
2024/01/20 02:54:29;;;;;;;4.33;3.90;;;;;;;;;;5035308;28;20449;-59
2024/01/20 02:56:58;;;;;;;3.23;2.93;;;;;;;;;;5028882;28;20842;-59
2024/01/20 02:59:25;;;;;;;5.33;3.77;;;;;;;;;;5032823;28;20503;-58
2024/01/20 03:01:53;;;;;;;9.90;3.87;;;;;;;;;;5034076;28;20477;-59
2024/01/20 03:04:20;;;;;;;2.93;2.67;;;;;;;;;;5035149;28;20500;-59
2024/01/20 03:06:47;;;;;;;5.00;3.23;;;;;;;;;;5034585;28;20470;-59
2024/01/20 03:09:14;;;;;;;3.83;2.80;;;;;;;;;;5034272;28;20531;-58
2024/01/20 03:11:42;;;;;;;3.33;2.93;;;;;;;;;;5033838;28;20588;-58
2024/01/20 03:14:11;;;;;;;5.97;2.80;;;;;;;;;;5035205;28;20527;-59
2024/01/20 03:16:39;;;;;;;4.97;2.83;;;;;;;;;;5035343;28;20446;-58
2024/01/20 03:19:06;;;;;;;4.63;3.77;;;;;;;;;;5034414;28;21152;-59
2024/01/20 03:21:34;;;;;;;6.73;2.67;;;;;;;;;;5033333;28;20463;-58
2024/01/20 03:24:01;;;;;;;6.47;2.87;;;;;;;;;;5034696;28;21016;-58
2024/01/20 03:26:28;;;;;;;4.50;3.27;;;;;;;;;;5035254;28;20503;-59
2024/01/20 03:28:55;;;;;;;6.00;3.20;;;;;;;;;;5034162;28;20465;-59
2024/01/20 03:31:25;;;;;;;4.37;2.43;;;;;;;;;;5026204;28;20485;-59
2024/01/20 03:33:52;;;;;;;2.93;2.50;;;;;;;;;;5034779;28;20500;-59
2024/01/20 03:36:20;;;;;;;5.27;2.13;;;;;;;;;;5032760;28;20510;-59
2024/01/20 03:38:47;;;;;;;5.23;2.93;;;;;;;;;;5034594;28;21002;-59
2024/01/20 03:41:14;;;;;;;7.80;2.93;;;;;;;;;;5034275;28;20442;-59
2024/01/20 03:43:41;;;;;;;5.03;3.13;;;;;;;;;;5035225;28;20468;-58
2024/01/20 03:46:08;;;;;;;5.73;3.20;;;;;;;;;;5034577;28;20497;-59
2024/01/20 03:48:37;;;;;;;6.43;3.60;;;-5.80;99.90;;;;;;5035321;28;20447;-59
2024/01/20 03:51:04;;;;;;;5.33;4.03;;;-5.80;99.90;;;;;;5034695;28;20997;-59
2024/01/20 03:53:31;;;;;;;4.43;3.10;;;-5.80;99.90;;;;;;5034116;28;20469;-59
2024/01/20 03:55:58;;;;;;;4.10;2.83;;;-5.90;99.90;;;;;;5034143;28;20445;-59
2024/01/20 03:58:25;;;;;;;3.67;2.67;;;;;;;;;;5032889;28;21007;-58
2024/01/20 04:00:52;;;;;;;4.07;2.83;;;;;;;;;;5033198;28;20431;-59
2024/01/20 04:03:20;;;;;;;6.53;3.33;;;;;;;;;;5033796;28;20466;-58
2024/01/20 04:05:48;;;;;;;2.57;2.03;;;;;;;;;;5034131;28;20446;-59
2024/01/20 04:08:16;;;;;;;5.17;3.60;;;;;;;;;;5032380;28;20484;-59
2024/01/20 04:10:43;;;;;;;4.90;3.07;;;;;;;;;;5032405;28;20478;-59
2024/01/20 04:13:10;;;;;;;4.27;2.50;;;;;;;;;;5034041;28;20473;-58
2024/01/20 04:15:37;;;;;;;4.97;1.93;;;;;;;;;;5033804;28;20937;-59
2024/01/20 04:18:05;;;;;;;5.70;2.90;;;;;;;;;;5034032;28;20948;-58
2024/01/20 04:20:32;;;;;;;4.80;3.37;;;;;;;;;;5033325;28;20445;-59
2024/01/20 04:23:01;;;;;;;4.83;2.60;;;;;;;;;;5031782;28;20524;-60
2024/01/20 04:25:29;;;;;;;5.80;3.20;;;;;;;;;;5033797;28;20454;-60
2024/01/20 04:27:56;;;;;;;2.80;2.57;;;;;;;;;;5032517;28;21004;-60
2024/01/20 04:30:23;;;;;;;2.03;1.90;;;;;;;;;;5035116;28;20942;-60
2024/01/20 04:32:51;;;;;;;2.60;2.40;;;;;;;;;;5033664;28;20454;-60
2024/01/20 04:35:18;;;;;;;3.97;2.23;;;;;;;;;;5034862;28;20495;-60
2024/01/20 04:37:45;;;;;;;5.77;2.33;;;;;;;;;;5033705;28;20470;-60
2024/01/20 04:40:14;;;;;;;5.67;2.80;;;;;;;;;;5033705;28;20848;-60
2024/01/20 04:42:41;;;;;;;4.30;2.63;;;;;;;;;;5031984;28;20504;-60
2024/01/20 04:45:11;;;;;;;3.83;2.60;;;;;;;;;;5032339;28;20453;-59
2024/01/20 04:47:38;;;;;;;4.00;2.47;;;;;;;;;;5024707;28;20538;-60
2024/01/20 04:50:05;;;;;;;2.80;2.57;;;;;;;;;;5032238;28;20461;-60
2024/01/20 04:52:33;;;;;;;5.20;2.43;;;;;;;;;;5032066;28;20533;-60
2024/01/20 04:55:00;;;;;;;2.93;1.73;;;;;;;;;;5033194;28;20438;-60
2024/01/20 04:57:29;;;;;;;2.37;1.90;;;;;;;;;;5032822;28;20528;-60
2024/01/20 04:59:56;;;;;;;2.93;2.17;;;;;;;;;;5033136;28;20445;-60
2024/01/20 05:02:23;;;;;;;3.27;2.33;;;;;;;;;;5025716;28;20553;-60
2024/01/20 05:04:50;;;;;;;3.23;2.20;;;;;;;;;;5032807;28;20933;-60
2024/01/20 05:07:18;;;;;;;4.23;2.17;;;;;;;;;;5032134;28;20445;-60
2024/01/20 05:09:45;;;;;;;4.20;1.83;;;-6.30;99.90;;;;;;5031825;28;20533;-60
2024/01/20 05:12:16;;;;;;;4.03;2.87;;;;;;;;;;5031930;28;20493;-60
2024/01/20 05:14:44;;;;;;;3.07;2.70;;;;;;;;;;5028074;28;20462;-60
2024/01/20 05:17:11;;;;;;;5.40;3.40;;;;;;;;;;5028235;28;20448;-60
2024/01/20 05:19:39;;;;;;;2.70;1.70;;;;;;;;;;5032463;28;21006;-60
2024/01/20 05:22:07;;;;;;;2.87;1.93;;;;;;;;;;5031719;28;20552;-60
2024/01/20 05:24:34;;;;;;;5.57;2.83;;;;;;;;;;5032475;28;20446;-60
2024/01/20 05:27:01;;;;;;;7.27;3.57;;;;;;;;;;5031533;28;20461;-60
2024/01/20 05:29:29;;;;;;;4.63;2.77;;;;;;;;;;5032387;28;20495;-60
2024/01/20 05:31:57;;;;;;;1.87;1.57;;;;;;;;;;5031346;28;20489;-60
2024/01/20 05:34:24;;;;;;;4.43;2.60;;;;;;;;;;5032529;28;20475;-60
2024/01/20 05:36:52;;;;;;;3.33;1.87;;;;;;;;;;5032903;28;20449;-60
2024/01/20 05:39:19;;;;;;;4.33;2.40;;;;;;;;;;5031590;28;20466;-60
2024/01/20 05:41:46;;;;;;;2.93;1.97;;;;;;;;;;5023473;28;21031;-60
2024/01/20 05:44:14;;;;;;;3.93;1.60;;;;;;;;;;5032244;28;20437;-60
2024/01/20 05:46:41;;;;;;;1.17;1.13;;;;;;;;;;5030545;28;20465;-60
2024/01/20 05:49:10;;;;;;;2.07;1.37;;;;;;;;;;5030498;28;20438;-59
2024/01/20 05:51:37;;;;;;;4.80;1.40;;;;;;;;;;5027979;28;20481;-60
2024/01/20 05:54:05;;;;;;;2.43;1.10;;;;;;;;;;5029208;28;20449;-63
2024/01/20 05:56:32;;;;;;;3.43;1.00;;;;;;;;;;5026143;28;20492;-60
2024/01/20 05:58:59;;;;;;;1.40;1.27;;;;;;;;;;5030341;28;20441;-59
2024/01/20 06:01:26;;;;;;;1.33;1.23;;;;;;;;;;5029199;28;20437;-60
2024/01/20 06:03:54;;;;;;;1.73;1.13;;;;;;;;;;5028567;28;21007;-60
2024/01/20 06:06:23;;;;;;;1.03;1.00;;;;;;;;;;5028892;28;20434;-59
2024/01/20 06:08:50;;;;;;;1.27;1.20;;;;;;;;;;5027609;28;20517;-59
2024/01/20 06:11:17;;;;;;;4.30;1.80;;;;;;;;;;5028256;28;20496;-59
2024/01/20 06:13:44;;;;;;;2.93;1.50;;;;;;;;;;5030020;28;20520;-59
2024/01/20 06:16:13;;;;;;;5.13;1.80;;;;;;;;;;5030327;28;20481;-59
2024/01/20 06:18:40;;;;;;;4.77;2.47;;;;;;;;;;5028337;28;20470;-60
2024/01/20 06:21:08;;;;;;;6.90;3.20;;;;;;;;;;5028772;28;20445;-60
2024/01/20 06:23:37;;;;;;;3.70;1.97;;;;;;;;;;5033838;28;21001;-60
2024/01/20 06:26:04;;;;;;;3.13;2.00;;;;;;;;;;5031227;28;20499;-59
2024/01/20 06:28:32;;;;;;;3.70;2.27;;;;;;;;;;5028356;28;20873;-60
2024/01/20 06:31:00;;;;;;;3.00;2.63;;;;;;;;;;5031111;28;20449;-59
2024/01/20 06:33:27;;;;;;;5.97;4.60;;;;;;;;;;5031322;28;20485;-59
2024/01/20 06:35:54;;;;;;;3.47;3.07;;;;;;;;;;5032872;28;20504;-60
2024/01/20 06:38:22;;;;;;;5.60;3.03;;;;;;;;;;5027729;28;20818;-60
2024/01/20 06:40:50;;;;;;;7.33;5.00;;;;;;;;;;5032307;28;20957;-60
2024/01/20 06:43:18;;;;;;;15.87;7.50;;;;;;;;;;5028568;28;20885;-60
2024/01/20 06:45:46;;;;;;;15.63;6.93;;;;;;;;;;5032934;28;20443;-59
2024/01/20 06:48:13;;;;;;;8.67;5.80;;;;;;;;;;5032752;28;20454;-60
2024/01/20 06:50:43;;;;;;;12.10;7.27;;;;;;;;;;5031846;28;20451;-59
2024/01/20 06:53:11;;;;;;;11.57;5.17;;;;;;;;;;5028152;28;20486;-59
2024/01/20 06:55:38;;;;;;;8.13;4.33;;;;;;;;;;5031747;28;20544;-60
2024/01/20 06:58:07;;;;;;;8.57;4.73;;;;;;;;;;5033404;28;20449;-59
2024/01/20 07:00:34;;;;;;;8.53;4.87;;;;;;;;;;5032291;28;20437;-60
2024/01/20 07:03:01;;;;;;;8.87;5.87;;;;;;;;;;5032499;28;21169;-60
2024/01/20 07:05:29;;;;;;;10.40;3.97;;;;;;;;;;5032560;28;21143;-59
2024/01/20 07:07:56;;;;;;;12.07;5.90;;;;;;;;;;5034988;28;20445;-59
2024/01/20 07:10:23;;;;;;;14.67;7.10;;;;;;;;;;5032690;28;20456;-59
2024/01/20 07:12:50;;;;;;;13.60;6.87;;;;;;;;;;5033018;28;20547;-59
2024/01/20 07:15:19;;;;;;;14.93;6.47;;;;;;;;;;5033403;28;20625;-59
2024/01/20 07:17:46;;;;;;;11.23;5.87;;;;;;;;;;5031114;28;20441;-59
2024/01/20 07:20:13;;;;;;;8.23;5.17;;;;;;;;;;5029921;28;20438;-59
2024/01/20 07:22:41;;;;;;;7.10;4.57;;;;;;;;;;5033041;28;20458;-59
2024/01/20 07:25:09;;;;;;;10.13;5.33;;;;;;;;;;5032154;28;20471;-59
2024/01/20 07:27:37;;;;;;;8.07;5.23;;;;;;;;;;5031707;28;20446;-59
2024/01/20 07:30:04;;;;;;;7.47;4.50;;;;;;;;;;5030817;28;20437;-59
2024/01/20 07:32:33;;;;;;;12.87;9.10;;;;;;;;;;5026722;28;21077;-59
2024/01/20 07:35:00;;;;;;;11.77;7.43;;;;;;;;;;5028421;28;20504;-59
2024/01/20 07:37:28;;;;;;;11.33;8.07;;;;;;;;;;5028959;28;20521;-59
2024/01/20 07:39:55;;;;;;;13.70;7.40;;;;;;;;;;5032993;28;20461;-59
2024/01/20 07:42:23;;;;;;;10.40;6.90;;;;;;;;;;5030867;28;20535;-60
2024/01/20 07:44:50;;;;;;;9.63;6.10;;;;;;;;;;5029616;28;20446;-59
2024/01/20 07:47:17;;;;;;;5.30;4.90;;;;;;;;;;5033374;28;20487;-59
2024/01/20 07:49:46;;;;;;;6.60;4.57;;;;;;;;;;5029807;28;20519;-60
2024/01/20 07:52:14;;;;;;;6.97;4.13;;;;;;;;;;5028249;28;20567;-59
2024/01/20 07:54:41;;;;;;;4.60;3.47;;;;;;;;;;5032116;28;20441;-59
2024/01/20 07:57:12;;;;;;;4.17;3.77;;;;;;;;;;5030479;28;20575;-59
2024/01/20 07:59:39;;;;;;;3.73;3.37;;;;;;;;;;5028031;28;20441;-60
2024/01/20 08:02:06;;;;;;;4.10;3.63;;;;;;;;;;5029382;28;20461;-59
2024/01/20 08:04:33;;;;;;;5.67;4.20;;;;;;;;;;5029605;28;20492;-60
2024/01/20 08:07:02;;;;;;;4.83;3.50;;;;;;;;;;5029055;28;20485;-60
2024/01/20 08:09:30;;;;;;;5.47;3.57;;;;;;;;;;5032218;28;20484;-59
2024/01/20 08:11:57;;;;;;;6.90;5.27;;;;;;;;;;5027552;28;20864;-60
2024/01/20 08:14:24;;;;;;;5.40;4.37;;;;;;;;;;5026909;28;20437;-59
2024/01/20 08:16:51;;;;;;;5.27;4.57;;;;;;;;;;5028325;28;20447;-59
2024/01/20 08:19:18;;;;;;;5.50;4.33;;;;;;;;;;5032394;28;20445;-60
2024/01/20 08:21:46;;;;;;;5.63;4.73;;;;;;;;;;5030739;28;20903;-60
2024/01/20 08:24:14;;;;;;;4.83;3.20;;;;;;;;;;5030870;28;20446;-60
2024/01/20 08:26:42;;;;;;;5.63;3.40;;;;;;;;;;5028791;28;20438;-60
2024/01/20 08:29:09;;;;;;;5.40;2.63;;;;;;;;;;5029451;28;20976;-60
2024/01/20 08:31:37;;;;;;;6.53;3.80;;;;;;;;;;5029031;28;20442;-59
2024/01/20 08:34:04;;;;;;;4.50;2.77;;;;;;;;;;5024200;28;20486;-59
2024/01/20 08:36:31;;;;;;;6.30;3.10;;;;;;;;;;5031657;28;20446;-60
2024/01/20 08:38:58;;;;;;;3.67;2.63;;;;;;;;;;5028993;28;20496;-59
2024/01/20 08:41:27;;;;;;;8.93;3.57;;;;;;;;;;5029892;28;20486;-60
2024/01/20 08:43:55;;;;;;;12.13;5.07;;;;;;;;;;5028329;28;20444;-60
2024/01/20 08:46:22;;;;;;;7.43;3.93;;;;;;;;;;5027836;28;20451;-60
2024/01/20 08:48:49;;;;;;;9.23;4.00;;;;;;;;;;5028700;28;20199;-60
2024/01/20 08:51:16;;;;;;;5.30;3.50;;;;;;;;;;5030685;28;20217;-59
2024/01/20 08:53:44;;;;;;;5.17;4.20;;;;;;;;;;5030957;28;21507;-59
2024/01/20 08:56:11;;;;;;;6.83;3.67;;;;;;;;;;5031743;28;20207;-60
2024/01/20 08:58:39;;;;;;;5.27;3.33;;;;;;;;;;5032852;28;20205;-59
2024/01/20 09:01:07;;;;;;;5.90;3.30;;;;;;;;;;5028871;28;20204;-60
2024/01/20 09:03:34;;;;;;;3.40;2.37;;;;;;;;;;5030245;28;20248;-60
2024/01/20 09:06:01;;;;;;;2.73;2.53;;;;;;;;;;5023373;28;20198;-60
2024/01/20 09:08:29;;;;;;;10.07;2.50;;;;;;;;;;5024282;28;20297;-60
2024/01/20 09:10:58;;;;;;;4.90;2.70;;;;;;;;;;5031833;28;20589;-60
2024/01/20 09:13:25;;;;;;;4.63;3.07;;;;;;;;;;5031891;28;20227;-60
2024/01/20 09:15:54;;;;;;;2.93;2.57;;;;;;;;;;5032514;28;20199;-60
2024/01/20 09:18:21;;;;;;;4.30;2.57;;;;;;;;;;5032309;28;20250;-60
2024/01/20 09:20:48;;;;;;;6.63;3.00;;;;;;;;;;5031544;28;20274;-60
2024/01/20 09:23:15;;;;;;;3.33;2.10;;;;;;;;;;5032148;28;20220;-62
2024/01/20 09:25:44;;;;;;;5.93;2.43;;;;;;;;;;5023820;28;20680;-60
2024/01/20 09:28:11;;;;;;;5.40;2.20;;;;;;;;;;5032268;28;20281;-60
2024/01/20 09:30:39;;;;;;;3.27;2.97;;;;;;;;;;5031198;28;20326;-60
2024/01/20 09:33:07;;;;;;;2.23;1.33;;;;;;;;;;5031735;28;20235;-59
2024/01/20 09:35:34;;;;;;;1.47;1.30;;;;;;;;;;5032190;28;20206;-60
2024/01/20 09:38:03;;;;;;;1.90;1.37;;;;;;;;;;5027196;28;20243;-60
2024/01/20 09:40:32;;;;;;;3.07;2.00;;;;;;;;;;5029130;28;20209;-60
2024/01/20 09:42:59;;;;;;;2.57;2.37;;;;;;;;;;5031793;28;20217;-60
2024/01/20 09:45:26;;;;;;;4.83;2.23;;;;;;;;;;5023529;28;20753;-60
2024/01/20 09:47:54;;;;;;;4.40;3.30;;;;;;;;;;5031778;28;20204;-60
2024/01/20 09:50:23;;;;;;;2.57;2.07;;;;;;;;;;5028691;28;20200;-61
2024/01/20 09:52:55;;;;;;;5.07;3.47;;;;;;;;;;5027719;28;20250;-60
2024/01/20 09:55:23;;;;;;;4.23;1.73;;;;;;;;;;5020404;28;20634;-60
2024/01/20 09:57:51;;;;;;;5.23;3.67;;;;;;;;;;5030716;28;20207;-61
2024/01/20 10:00:19;;;;;;;8.53;4.67;;;;;;;;;;5030737;28;20207;-60
2024/01/20 10:02:47;;;;;;;8.63;4.97;;;;;;;;;;5021550;28;20223;-60
2024/01/20 10:05:15;;;;;;;7.60;4.40;;;;;;;;;;5032313;28;20211;-60
2024/01/20 10:07:44;;;;;;;3.23;2.43;;;;;;;;;;5020671;28;20204;-60
2024/01/20 10:10:20;;;;;;;4.65;3.33;;;;;;;;;;5027112;28;20511;-61
2024/01/20 10:12:49;;;;;;;4.03;2.67;;;;;;;;;;5027852;28;20637;-62
2024/01/20 10:15:17;;;;;;;2.50;1.43;;;;;;;;;;5023870;28;20284;-63
2024/01/20 10:17:44;;;;;;;2.77;2.10;;;;;;;;;;5030207;28;20196;-61
2024/01/20 10:20:19;;;;;;;1.77;1.63;;;;;;;;;;5024852;28;20262;-61
2024/01/20 10:22:48;;;;;;;4.70;1.80;;;;;;;;;;5028657;28;20227;-66
2024/01/20 10:25:19;;;;;;;5.93;2.20;;;;;;;;;;5022220;28;20299;-65
2024/01/20 10:27:46;;;;;;;2.50;2.30;;;;;;;;;;5028123;28;20566;-64
2024/01/20 10:30:14;;;;;;;1.63;1.53;;;;;;;;;;5019053;28;20232;-64
2024/01/20 10:32:42;;;;;;;2.63;1.10;;;;;;;;;;5019527;28;20245;-66
2024/01/20 10:35:09;;;;;;;2.30;2.10;;;;;;;;;;5021856;28;20291;-67
2024/01/20 10:37:40;;;;;;;0.90;0.80;;;;;;;;;;5021469;28;20282;-65
2024/01/20 10:40:11;;;;;;;2.03;0.70;;;;;;;;;;5024695;28;20214;-66
2024/01/20 10:42:42;;;;;;;1.03;0.93;;;;;;;;;;5021385;28;20799;-60
2024/01/20 10:45:10;;;;;;;0.80;0.77;;;;;;;;;;5025018;28;20270;-57
2024/01/20 10:47:39;;;;;;;2.37;1.07;;;;;;;;;;5028827;28;20209;-66
2024/01/20 10:50:06;;;;;;;2.23;1.37;;;;;;;;;;5031661;28;20239;-67
2024/01/20 10:52:34;;;;;;;1.53;1.27;;;;;;;;;;5027640;28;20224;-66
2024/01/20 10:55:02;;;;;;;2.43;1.20;;;;;;;;;;5019248;28;20296;-62
2024/01/20 10:57:31;;;;;;;1.97;1.20;;;;;;;;;;5024252;28;20213;-67
2024/01/20 10:59:59;;;;;;;1.87;1.40;;;;;;;;;;5016231;28;20209;-67
2024/01/20 11:02:27;;;;;;;2.03;1.40;;;;;;;;;;5018761;28;20770;-65
2024/01/20 11:04:54;;;;;;;1.50;1.37;;;;;;;;;;5021193;28;20204;-67
2024/01/20 11:07:22;;;;;;;5.37;2.23;;;;;;;;;;5029469;28;20208;-66
2024/01/20 11:09:56;;;;;;;3.60;2.50;;;;;;;;;;5031247;28;20233;-67
2024/01/20 11:12:24;;;;;;;3.67;2.63;;;;;;;;;;5028672;28;20267;-66
2024/01/20 11:14:53;;;;;;;7.90;2.47;;;;;;;;;;5028676;28;20223;-66
2024/01/20 11:17:22;;;;;;;3.53;1.87;;;;;;;;;;5030696;28;20742;-64
2024/01/20 11:19:49;;;;;;;5.00;1.90;;;;;;;;;;5031776;28;20201;-63
2024/01/20 11:22:32;;;;;;;4.47;2.13;;;;;;;;;;5029663;28;20236;-64
2024/01/20 11:25:04;;;;;;;2.10;1.53;;;;;;;;;;5027462;28;20663;-65
2024/01/20 11:27:31;;;;;;;2.87;1.90;;;;;;;;;;5029606;28;20291;-58
2024/01/20 11:30:07;;;;;;;1.70;1.50;;;;;;;;;;5031689;28;20261;-58
2024/01/20 11:32:34;;;;;;;3.00;1.73;;;;;;;;;;5031522;28;20221;-59
2024/01/20 11:35:02;;;;;;;3.53;2.30;;;;;;;;;;5028886;28;20285;-58
2024/01/20 11:37:29;;;;;;;1.00;1.00;;;;;;;;;;5030681;28;20192;-58
2024/01/20 11:40:05;;;;;;;2.10;1.07;;;;;;;;;;5026399;28;20617;-62
2024/01/20 11:42:33;;;;;;;1.53;0.77;;;;;;;;;;5022602;28;20251;-58
2024/01/20 11:45:01;;;;;;;1.13;0.83;;;;;;;;;;5027130;28;20557;-61
2024/01/20 11:47:30;;;;;;;1.97;1.00;;;;;;;;;;5029615;28;20219;-67
2024/01/20 11:49:58;;;;;;;1.30;1.20;;;;;;;;;;5028150;28;20246;-65
2024/01/20 11:52:26;;;;;;;1.63;1.50;;;;;;;;;;5028224;28;20251;-65
2024/01/20 11:54:53;;;;;;;2.03;1.30;;;;;;;;;;5029667;28;20275;-65
2024/01/20 11:57:21;;;;;;;2.10;1.70;;;;;;;;;;5031074;28;20196;-59
2024/01/20 11:59:48;;;;;;;2.60;1.03;;;;;;;;;;5028632;28;20292;-60
2024/01/20 12:02:17;;;;;;;1.73;1.00;;;;;;;;;;5030212;28;20282;-59
2024/01/20 12:04:46;;;;;;;1.13;1.03;;;;;;;;;;5030105;28;20252;-59
2024/01/20 12:07:17;;;;;;;1.00;1.00;;;;;;;;;;5031839;28;20316;-63
2024/01/20 12:09:45;;;;;;;2.23;1.27;;;;;;;;;;5029158;28;20258;-58
2024/01/20 12:12:13;;;;;;;0.83;0.70;;;;;;;;;;5025286;28;20229;-58
2024/01/20 12:14:42;;;;;;;3.93;1.20;;;;;;;;;;5029643;28;20230;-58
2024/01/20 12:17:09;;;;;;;1.43;0.90;;;;;;;;;;5029855;28;20287;-58
2024/01/20 12:19:38;;;;;;;5.33;2.17;;;;;;;;;;5025216;28;20204;-58
2024/01/20 12:22:10;;;;;;;1.00;0.90;;;;;;;;;;5027425;28;20310;-60
2024/01/20 12:24:38;;;;;;;3.23;1.57;;;;;;;;;;5031496;28;20282;-60
2024/01/20 12:27:06;;;;;;;1.70;1.07;;;;;;;;;;5030781;28;20210;-59
2024/01/20 12:29:33;;;;;;;1.73;1.03;;;;;;;;;;5029382;28;20215;-59
2024/01/20 12:32:01;;;;;;;2.97;0.90;;;;;;;;;;5026952;28;20227;-59
2024/01/20 12:34:28;;;;;;;9.37;1.13;;;;;;;;;;5028287;28;20224;-59
2024/01/20 12:36:55;;;;;;;4.67;1.00;;;;;;;;;;5026681;28;20203;-59
2024/01/20 12:39:24;;;;;;;1.77;0.90;;;;;;;;;;5031625;28;20207;-59
2024/01/20 12:41:52;;;;;;;2.80;1.30;;;;;;;;;;5029915;28;20282;-59
2024/01/20 12:44:18;;;;;;;1.80;1.23;;;;;;;;;;5027691;28;20248;-58
2024/01/20 12:46:46;;;;;;;1.17;1.13;;;;;;;;;;5028491;28;20232;-58
2024/01/20 12:49:13;;;;;;;2.33;1.27;;;;;;;;;;5026573;28;20212;-59
2024/01/20 12:51:41;;;;;;;1.10;1.07;;;;;;;;;;5024630;28;20730;-58
2024/01/20 12:54:08;;;;;;;1.10;1.00;;;;;;;;;;5028510;28;20224;-59
2024/01/20 12:56:37;;;;;;;1.23;1.00;;;;;;;;;;5029965;28;20304;-59
2024/01/20 12:59:04;;;;;;;1.93;1.00;;;;;;;;;;5026159;28;20287;-58
2024/01/20 13:01:32;;;;;;;2.47;1.43;;;;;;;;;;5029780;28;20206;-58
2024/01/20 13:03:59;;;;;;;1.20;1.10;;;;;;;;;;5029158;28;20210;-60
2024/01/20 13:06:29;;;;;;;1.43;1.33;;;;;;;;;;5027849;28;20253;-58
2024/01/20 13:08:56;;;;;;;2.90;1.20;;;;;;;;;;5027849;28;20263;-58
2024/01/20 13:11:24;;;;;;;1.33;0.97;;;;;;;;;;5029957;28;20351;-58
2024/01/20 13:13:53;;;;;;;0.67;0.67;;;;;;;;;;5028069;28;20224;-58
2024/01/20 13:16:20;;;;;;;1.40;0.93;;;;;;;;;;5028190;28;20200;-58
2024/01/20 13:18:50;;;;;;;2.07;0.83;;;;;;;;;;5027605;28;20591;-58
2024/01/20 13:21:17;;;;;;;0.57;0.57;;;;;;;;;;5029228;28;20219;-58
2024/01/20 13:23:46;;;;;;;0.40;0.40;;;;;;;;;;5028656;28;20211;-58
2024/01/20 13:26:14;;;;;;;2.10;0.57;;;;;;;;;;5029033;28;20203;-58
2024/01/20 13:28:41;;;;;;;1.33;0.50;;;;;;;;;;5025940;28;20278;-58
2024/01/20 13:31:10;;;;;;;0.90;0.80;;;;;;;;;;5028594;28;20265;-58
2024/01/20 13:33:37;;;;;;;0.70;0.70;;;;;;;;;;5029527;28;20231;-59
2024/01/20 13:36:04;;;;;;;2.73;0.50;;;;;;;;;;5029634;28;20242;-58
2024/01/20 13:38:32;;;;;;;0.77;0.77;;;;;;;;;;5026839;28;20199;-58
2024/01/20 13:40:59;;;;;;;0.83;0.83;;;;;;;;;;5029824;28;20203;-58
2024/01/20 13:43:26;;;;;;;0.93;0.50;;;;;;;;;;5028905;28;20283;-58
2024/01/20 13:45:53;;;;;;;0.50;0.50;;;;;;;;;;5024664;28;20204;-58
2024/01/20 13:48:22;;;;;;;2.90;0.83;;;;;;;;;;5030643;28;20212;-58
2024/01/20 13:50:50;;;;;;;2.30;0.90;;;;;;;;;;5028667;28;20224;-58
2024/01/20 13:53:17;;;;;;;0.90;0.67;;;;;;;;;;5028524;28;20270;-58
2024/01/20 13:55:44;;;;;;;0.77;0.60;;;;;;;;;;5026289;28;20282;-58
2024/01/20 13:58:12;;;;;;;1.67;1.23;;;;;;;;;;5026893;28;20228;-58
2024/01/20 14:00:41;;;;;;;0.83;0.70;;;;;;;;;;5021202;28;20635;-58
2024/01/20 14:03:08;;;;;;;1.10;0.40;;;;;;;;;;5023851;28;20224;-58
2024/01/20 14:05:37;;;;;;;1.37;0.77;;;;;;;;;;5028282;28;20192;-58
2024/01/20 14:08:04;;;;;;;2.77;0.70;;;;;;;;;;5027498;28;20693;-59
2024/01/20 14:10:31;;;;;;;1.10;0.73;;;;;;;;;;5027273;28;20265;-58
2024/01/20 14:12:59;;;;;;;2.27;1.10;;;;;;;;;;5026952;28;20618;-59
2024/01/20 14:15:26;;;;;;;0.77;0.50;;;;;;;;;;5026522;28;20246;-58
2024/01/20 14:17:53;;;;;;;0.70;0.70;;;;;;;;;;5027318;28;20210;-59
2024/01/20 14:20:20;;;;;;;2.93;0.67;;;;;;;;;;5029527;28;20204;-59
2024/01/20 14:22:49;;;;;;;0.40;0.40;;;;;;;;;;5025945;28;20234;-58
2024/01/20 14:25:16;;;;;;;1.27;0.60;;;;;;;;;;5027873;28;20626;-58
2024/01/20 14:27:44;;;;;;;0.70;0.57;;;;;;;;;;5026948;28;20619;-58
2024/01/20 14:30:12;;;;;;;1.20;0.50;;;;;;;;;;5030319;28;20749;-58
2024/01/20 14:32:39;;;;;;;1.47;1.00;;;;;;;;;;5029840;28;20286;-58